Time;durP1;ratioP1;P1;durP2;ratioP2;P2;SDS_P1;SDS_P2;PMS_P1;PMS_P2;Temp;Humidity;BMP_temperature;BMP_pressure;BME280_temperature;BME280_humidity;BME280_pressure;Samples;Min_cycle;Max_cycle;Signal;HPM_P1;HPM_P2
2022/09/06 03:01:48;;;;;;;1.30;1.20;;;25.40;46.20;;;;;;5311066;23;45908;-64
2022/09/06 03:04:14;;;;;;;2.55;1.75;;;25.40;46.10;;;;;;4925986;28;46167;-65
2022/09/06 03:06:39;;;;;;;2.90;1.73;;;25.40;46.10;;;;;;4917408;28;45608;-66
2022/09/06 03:09:05;;;;;;;3.78;1.80;;;25.40;46.20;;;;;;4939593;28;45558;-67
2022/09/06 03:11:31;;;;;;;2.25;1.80;;;25.40;46.20;;;;;;4937922;28;45185;-65
2022/09/06 03:13:56;;;;;;;2.13;1.77;;;25.40;46.20;;;;;;4934766;28;46089;-64
2022/09/06 03:16:22;;;;;;;2.78;1.70;;;25.40;46.20;;;;;;4951952;28;45572;-66
2022/09/06 03:18:47;;;;;;;2.10;1.67;;;25.40;46.20;;;;;;4956279;28;44727;-64
2022/09/06 03:21:13;;;;;;;4.18;1.83;;;25.40;46.20;;;;;;4925734;28;45294;-66
2022/09/06 03:23:39;;;;;;;3.30;1.38;;;25.40;46.80;;;;;;4950957;28;45939;-66
2022/09/06 03:26:05;;;;;;;2.13;1.70;;;25.40;46.30;;;;;;4949603;28;45592;-64
2022/09/06 03:28:30;;;;;;;2.33;1.83;;;25.40;46.30;;;;;;4918248;28;45324;-65
2022/09/06 03:30:56;;;;;;;2.15;1.75;;;25.40;46.30;;;;;;4942125;28;45735;-66
2022/09/06 03:33:22;;;;;;;2.53;1.80;;;25.40;46.30;;;;;;4950986;28;45447;-66
2022/09/06 03:35:52;;;;;;;2.80;1.88;;;25.40;46.20;;;;;;4940709;28;45248;-64
2022/09/06 03:38:18;;;;;;;3.70;1.77;;;25.30;46.20;;;;;;4956510;28;45173;-66
2022/09/06 03:40:45;;;;;;;2.10;1.88;;;25.30;46.20;;;;;;4951169;28;45466;-65
2022/09/06 03:43:10;;;;;;;4.15;1.65;;;25.30;46.30;;;;;;4933644;28;46034;-66
2022/09/06 03:45:36;;;;;;;1.92;1.73;;;25.30;46.30;;;;;;4925074;28;45323;-64
2022/09/06 03:48:02;;;;;;;1.60;1.50;;;25.30;46.40;;;;;;4951810;28;45646;-66
2022/09/06 03:50:27;;;;;;;3.33;1.88;;;25.30;46.40;;;;;;4952270;28;45657;-64
2022/09/06 03:52:53;;;;;;;2.70;1.67;;;25.30;46.40;;;;;;4952166;28;45273;-66
2022/09/06 03:55:18;;;;;;;2.78;1.77;;;25.30;46.40;;;;;;4956084;28;45432;-65
2022/09/06 03:57:44;;;;;;;4.13;1.88;;;25.30;46.40;;;;;;4953660;28;45494;-66
2022/09/06 04:00:10;;;;;;;1.83;1.70;;;25.30;46.50;;;;;;4932399;28;45524;-65
2022/09/06 04:02:36;;;;;;;2.67;2.15;;;25.30;46.50;;;;;;4945029;28;46862;-66
2022/09/06 04:05:01;;;;;;;2.45;2.08;;;25.20;46.50;;;;;;4945376;28;45444;-64
2022/09/06 04:07:27;;;;;;;2.50;2.10;;;25.30;46.60;;;;;;4947981;28;44755;-68
2022/09/06 04:09:53;;;;;;;2.00;1.80;;;25.30;46.60;;;;;;4949748;28;45670;-70
2022/09/06 04:12:18;;;;;;;2.80;2.08;;;25.20;46.50;;;;;;4950199;28;46124;-65
2022/09/06 04:14:44;;;;;;;3.15;2.08;;;25.30;46.60;;;;;;4957280;28;45499;-66
2022/09/06 04:17:11;;;;;;;3.05;1.73;;;25.20;46.50;;;;;;4950215;28;45164;-64
2022/09/06 04:19:36;;;;;;;4.40;1.95;;;25.20;46.60;;;;;;4949606;28;45357;-65
2022/09/06 04:22:02;;;;;;;2.67;2.10;;;25.30;46.60;;;;;;4950226;28;46062;-66
2022/09/06 04:24:27;;;;;;;1.90;1.80;;;25.20;46.60;;;;;;4954496;28;45539;-66
2022/09/06 04:26:53;;;;;;;4.28;2.00;;;25.20;46.60;;;;;;4952804;28;44846;-64
2022/09/06 04:29:19;;;;;;;2.83;1.80;;;25.20;46.60;;;;;;4949839;28;45328;-68
2022/09/06 04:31:44;;;;;;;2.50;1.98;;;25.20;46.60;;;;;;4931499;28;46486;-66
2022/09/06 04:34:10;;;;;;;2.53;1.90;;;25.20;46.70;;;;;;4950448;28;45564;-66
2022/09/06 04:36:36;;;;;;;2.85;2.20;;;25.20;46.70;;;;;;4949033;28;45468;-64
2022/09/06 04:39:02;;;;;;;4.75;2.33;;;25.20;46.80;;;;;;4935640;28;44880;-64
2022/09/06 04:41:27;;;;;;;2.70;2.00;;;25.20;46.90;;;;;;4932189;28;46119;-65
2022/09/06 04:43:53;;;;;;;2.95;2.15;;;25.20;46.90;;;;;;4944511;28;45219;-66
2022/09/06 04:46:27;;;;;;;2.47;2.17;;;25.10;46.90;;;;;;4959806;28;45494;-65
2022/09/06 04:48:53;;;;;;;3.03;2.13;;;25.20;47.10;;;;;;4942885;28;45336;-67
2022/09/06 04:51:19;;;;;;;2.45;1.95;;;25.20;47.00;;;;;;4950946;28;46012;-65
2022/09/06 04:53:45;;;;;;;2.60;1.98;;;25.10;47.00;;;;;;4951405;28;45430;-67
2022/09/06 04:56:12;;;;;;;3.78;2.08;;;25.20;47.00;;;;;;4947591;28;45925;-66
2022/09/06 04:58:38;;;;;;;4.32;2.10;;;25.10;47.00;;;;;;4946568;28;45586;-66
2022/09/06 05:01:04;;;;;;;3.47;2.40;;;25.10;47.10;;;;;;4943270;28;46012;-66
2022/09/06 05:03:29;;;;;;;3.38;2.40;;;25.10;47.10;;;;;;4945025;28;45379;-67
2022/09/06 05:06:25;;;;;;;2.30;2.10;;;25.10;47.20;;;;;;4947909;28;45618;-66
2022/09/06 05:08:51;;;;;;;2.30;2.00;;;25.10;47.40;;;;;;4954256;28;45386;-67
2022/09/06 05:11:16;;;;;;;2.50;2.08;;;25.10;47.30;;;;;;4947871;28;46224;-65
2022/09/06 05:13:42;;;;;;;3.83;2.35;;;25.10;47.30;;;;;;4952775;28;45238;-66
2022/09/06 05:16:08;;;;;;;2.80;2.15;;;25.10;47.30;;;;;;4948421;28;45182;-67
2022/09/06 05:18:34;;;;;;;4.10;2.45;;;25.10;47.40;;;;;;4925745;28;45453;-65
2022/09/06 05:20:59;;;;;;;2.97;2.40;;;25.10;47.50;;;;;;4932615;28;46878;-65
2022/09/06 05:23:25;;;;;;;3.15;2.53;;;25.10;47.60;;;;;;4949762;28;45488;-65
2022/09/06 05:25:51;;;;;;;2.80;2.42;;;25.10;47.60;;;;;;4946269;28;45646;-67
2022/09/06 05:28:16;;;;;;;6.85;3.08;;;25.10;47.60;;;;;;4953241;28;45364;-66
2022/09/06 05:30:42;;;;;;;3.08;2.30;;;25.10;47.60;;;;;;4946398;28;46348;-66
2022/09/06 05:33:08;;;;;;;4.00;2.53;;;25.10;47.60;;;;;;4949933;28;44697;-64
2022/09/06 05:35:34;;;;;;;3.22;2.40;;;25.10;47.80;;;;;;4913266;28;45686;-67
2022/09/06 05:37:59;;;;;;;4.00;2.80;;;25.10;47.90;;;;;;4938947;28;45766;-65
2022/09/06 05:40:25;;;;;;;3.45;2.72;;;25.10;48.10;;;;;;4953193;28;46377;-65
2022/09/06 05:42:51;;;;;;;5.80;2.80;;;25.00;48.30;;;;;;4931287;28;44997;-66
2022/09/06 05:45:16;;;;;;;3.55;2.80;;;25.00;48.40;;;;;;4949561;28;45472;-65
2022/09/06 05:47:42;;;;;;;3.63;3.08;;;25.00;48.70;;;;;;4949410;28;44813;-66
2022/09/06 05:50:08;;;;;;;5.57;3.00;;;24.90;48.90;;;;;;4944625;28;46256;-66
2022/09/06 05:52:34;;;;;;;6.40;3.15;;;24.90;49.10;;;;;;4951258;28;45235;-65
2022/09/06 05:55:00;;;;;;;3.25;2.95;;;24.90;49.30;;;;;;4943401;28;44876;-65
2022/09/06 05:57:25;;;;;;;3.70;3.38;;;24.80;49.40;;;;;;4936864;28;45249;-66
2022/09/06 05:59:52;;;;;;;3.50;2.95;;;24.80;49.70;;;;;;4944260;28;46004;-67
2022/09/06 06:02:19;;;;;;;3.63;3.10;;;24.80;49.80;;;;;;4946632;28;45453;-66
2022/09/06 06:04:45;;;;;;;5.00;3.78;;;24.80;50.00;;;;;;4932963;28;45628;-69
2022/09/06 06:07:10;;;;;;;5.35;3.90;;;24.80;50.70;;;;;;4934150;28;45239;-64
2022/09/06 06:09:36;;;;;;;3.85;3.45;;;24.80;50.20;;;;;;4949208;28;45786;-66
2022/09/06 06:12:02;;;;;;;4.03;3.63;;;24.80;50.40;;;;;;4933258;28;44929;-66
2022/09/06 06:14:27;;;;;;;5.57;3.65;;;24.80;50.50;;;;;;4918527;28;45404;-62
2022/09/06 06:16:53;;;;;;;5.88;3.88;;;24.80;50.50;;;;;;4947230;28;45256;-68
2022/09/06 06:19:18;;;;;;;9.05;3.97;;;24.80;50.60;;;;;;4949604;28;45432;-68
2022/09/06 06:21:44;;;;;;;5.38;3.95;;;24.90;50.50;;;;;;4944593;28;45569;-69
2022/09/06 06:24:10;;;;;;;7.53;4.07;;;24.90;50.60;;;;;;4941793;28;45544;-67
2022/09/06 06:26:35;;;;;;;4.20;3.85;;;25.00;50.60;;;;;;4942863;28;45386;-67
2022/09/06 06:29:01;;;;;;;6.60;3.80;;;25.00;50.70;;;;;;4928961;28;45979;-68
2022/09/06 06:31:31;;;;;;;4.05;3.65;;;25.00;50.70;;;;;;4953509;28;45535;-66
2022/09/06 06:33:57;;;;;;;4.20;3.40;;;25.00;50.80;;;;;;4935144;28;45310;-69
2022/09/06 06:36:24;;;;;;;4.43;4.05;;;25.10;50.80;;;;;;4960185;28;45205;-67
2022/09/06 06:38:51;;;;;;;6.35;3.90;;;25.10;50.80;;;;;;4920336;28;46394;-68
2022/09/06 06:41:17;;;;;;;6.68;4.10;;;25.10;50.90;;;;;;4932806;28;45013;-65
2022/09/06 06:43:43;;;;;;;8.05;4.60;;;25.10;50.80;;;;;;4956189;28;45487;-67
2022/09/06 06:46:10;;;;;;;5.65;4.05;;;25.20;50.90;;;;;;4953715;28;45274;-67
2022/09/06 06:48:36;;;;;;;7.57;4.28;;;25.10;51.00;;;;;;4936720;28;47142;-67
2022/09/06 06:51:02;;;;;;;5.00;3.97;;;25.10;50.90;;;;;;4951478;28;45504;-66
2022/09/06 06:53:27;;;;;;;7.10;3.97;;;25.20;51.00;;;;;;4953683;28;45566;-67
2022/09/06 06:55:53;;;;;;;4.57;4.15;;;25.10;50.90;;;;;;4960308;28;45607;-66
2022/09/06 06:58:19;;;;;;;8.98;4.38;;;25.20;51.10;;;;;;4918074;28;46353;-66
2022/09/06 07:00:44;;;;;;;4.88;4.13;;;25.20;51.00;;;;;;4948912;28;45249;-65
2022/09/06 07:03:10;;;;;;;6.65;4.75;;;25.20;51.10;;;;;;4947625;28;45062;-65
2022/09/06 07:05:36;;;;;;;4.85;4.45;;;25.30;51.30;;;;;;4944085;28;45531;-65
2022/09/06 07:08:02;;;;;;;5.30;4.18;;;25.30;51.20;;;;;;4936083;28;46024;-65
2022/09/06 07:10:27;;;;;;;8.50;4.38;;;25.30;51.20;;;;;;4954966;28;45266;-66
2022/09/06 07:12:53;;;;;;;4.55;4.00;;;25.40;51.20;;;;;;4933852;28;45195;-67
2022/09/06 07:15:18;;;;;;;6.05;4.20;;;25.40;51.10;;;;;;4953001;28;44731;-66
2022/09/06 07:17:44;;;;;;;5.88;4.60;;;25.40;51.10;;;;;;4952245;28;45559;-66
2022/09/06 07:20:10;;;;;;;4.55;4.15;;;25.40;51.10;;;;;;4938284;28;45566;-65
2022/09/06 07:22:36;;;;;;;6.13;4.25;;;25.40;51.10;;;;;;4951750;28;45806;-63
2022/09/06 07:25:03;;;;;;;4.60;4.00;;;25.50;51.20;;;;;;4949424;28;44705;-63
2022/09/06 07:27:28;;;;;;;7.32;4.45;;;25.50;51.20;;;;;;4948353;28;46147;-66
2022/09/06 07:29:54;;;;;;;4.38;3.97;;;25.50;51.20;;;;;;4936190;28;45400;-65
2022/09/06 07:32:20;;;;;;;4.80;3.88;;;25.50;51.20;;;;;;4951312;28;45134;-65
2022/09/06 07:34:45;;;;;;;11.50;4.18;;;25.50;51.20;;;;;;4954522;28;45488;-65
2022/09/06 07:37:11;;;;;;;4.20;3.80;;;25.50;51.20;;;;;;4953057;28;45274;-66
2022/09/06 07:39:37;;;;;;;5.57;3.78;;;25.60;51.20;;;;;;4946740;28;45669;-68
2022/09/06 07:42:03;;;;;;;5.13;3.97;;;25.60;51.20;;;;;;4936847;28;45588;-66
2022/09/06 07:44:29;;;;;;;4.03;3.63;;;25.60;51.20;;;;;;4936184;28;44762;-65
2022/09/06 07:46:54;;;;;;;4.20;3.70;;;25.60;51.10;;;;;;4951721;28;46042;-66
2022/09/06 07:49:20;;;;;;;4.38;3.95;;;25.70;51.20;;;;;;4934806;28;45249;-65
2022/09/06 07:51:46;;;;;;;4.35;3.83;;;25.70;51.30;;;;;;4953956;28;45286;-67
2022/09/06 07:54:12;;;;;;;5.72;3.67;;;25.70;51.20;;;;;;4950255;28;45271;-67
2022/09/06 07:56:38;;;;;;;4.10;3.58;;;25.80;51.10;;;;;;4934970;28;46221;-67
2022/09/06 07:59:03;;;;;;;4.10;3.70;;;25.80;51.10;;;;;;4950414;28;45257;-66
2022/09/06 08:01:30;;;;;;;3.95;3.60;;;25.80;51.00;;;;;;4951751;28;45762;-66
2022/09/06 08:03:56;;;;;;;;;;;25.80;51.10;;;;;;4954887;28;45675;-56
2022/09/06 08:06:22;;;;;;;;;;;25.80;51.80;;;;;;4948521;28;46821;-61
2022/09/06 08:08:48;;;;;;;;;;;25.80;51.80;;;;;;4951058;28;45555;-58
2022/09/06 08:11:13;;;;;;;;;;;25.90;51.70;;;;;;4952210;28;45408;-60
2022/09/06 08:13:39;;;;;;;;;;;25.90;51.80;;;;;;4945819;28;45224;-61
2022/09/06 08:16:05;;;;;;;;;;;25.90;51.80;;;;;;4952501;28;45611;-58
2022/09/06 08:18:31;;;;;;;;;;;25.90;51.90;;;;;;4952488;28;45449;-57
2022/09/06 08:21:04;;;;;;;;;;;26.00;51.70;;;;;;4954975;28;45540;-58
2022/09/06 08:23:29;;;;;;;;;;;26.00;51.60;;;;;;4953650;28;45260;-59
2022/09/06 08:25:56;;;;;;;;;;;26.00;51.60;;;;;;4952777;28;45882;-58
2022/09/06 08:28:21;;;;;;;;;;;26.00;51.40;;;;;;4956387;28;44654;-59
2022/09/06 08:30:47;;;;;;;;;;;26.00;51.40;;;;;;4953359;28;45219;-60
2022/09/06 08:33:14;;;;;;;;;;;26.10;51.40;;;;;;4956561;28;46091;-56
2022/09/06 08:35:40;;;;;;;;;;;26.10;51.60;;;;;;4955772;28;45985;-54
2022/09/06 08:38:05;;;;;;;;;;;26.10;51.50;;;;;;4955097;28;44635;-57
2022/09/06 08:40:31;;;;;;;;;;;26.10;51.40;;;;;;4953579;28;45313;-59
2022/09/06 08:42:56;;;;;;;;;;;26.10;51.50;;;;;;4941941;28;45672;-59
2022/09/06 08:45:22;;;;;;;;;;;26.10;51.30;;;;;;4932847;28;45951;-59
2022/09/06 08:47:49;;;;;;;;;;;26.10;51.40;;;;;;4940935;28;45334;-58
2022/09/06 08:50:15;;;;;;;;;;;26.20;51.20;;;;;;4935548;28;45252;-61
2022/09/06 08:52:46;;;;;;;;;;;26.20;51.30;;;;;;4951927;28;47128;-58
2022/09/06 08:55:12;;;;;;;;;;;26.20;51.30;;;;;;4953304;28;45934;-56
2022/09/06 08:57:58;;;;;;;;;;;26.20;51.30;;;;;;4950995;28;44832;-57
2022/09/06 09:00:23;;;;;;;;;;;26.20;51.30;;;;;;4938732;28;46207;-58
2022/09/06 09:02:51;;;;;;;;;;;26.20;51.40;;;;;;4950720;28;45710;-61
2022/09/06 09:05:17;;;;;;;;;;;26.30;51.50;;;;;;4936714;28;46191;-56
2022/09/06 09:07:44;;;;;;;;;;;26.30;51.40;;;;;;4954789;28;45216;-56
2022/09/06 09:10:17;;;;;;;;;;;26.30;51.50;;;;;;4937655;28;45232;-58
2022/09/06 09:12:44;;;;;;;;;;;26.30;51.50;;;;;;4950063;28;45402;-58
2022/09/06 09:15:09;;;;;;;;;;;26.40;51.50;;;;;;4936387;28;46509;-57
2022/09/06 09:17:36;;;;;;;;;;;26.40;51.30;;;;;;4956928;28;44710;-58
2022/09/06 09:20:02;;;;;;;;;;;26.40;51.20;;;;;;4940634;28;45306;-58
2022/09/06 09:22:28;;;;;;;;;;;26.50;51.20;;;;;;4954433;28;45531;-59
2022/09/06 09:24:53;;;;;;;;;;;26.50;51.30;;;;;;4953033;28;46145;-56
2022/09/06 09:27:20;;;;;;;;;;;26.50;51.10;;;;;;4943511;28;45218;-57
2022/09/06 09:29:55;;;;;;;;;;;26.50;51.00;;;;;;4949060;28;45384;-56
2022/09/06 09:32:33;;;;;;;;;;;26.60;51.10;;;;;;4950310;28;45446;-56
2022/09/06 09:35:14;;;;;;;;;;;26.50;51.10;;;;;;4956015;28;45336;-58
2022/09/06 09:37:39;;;;;;;;;;;26.50;50.90;;;;;;4945983;28;45513;-58
2022/09/06 09:40:05;;;;;;;;;;;26.60;50.90;;;;;;4953703;28;45019;-59
2022/09/06 09:42:34;;;;;;;;;;;26.60;50.80;;;;;;4951168;28;45545;-56
2022/09/06 09:45:00;;;;;;;;;;;26.60;50.70;;;;;;4945857;28;46223;-59
2022/09/06 09:47:27;;;;;;;;;;;26.70;50.80;;;;;;4921876;28;45663;-57
2022/09/06 09:49:53;;;;;;;;;;;26.70;50.80;;;;;;4957266;28;45410;-57
2022/09/06 09:52:31;;;;;;;;;;;26.80;50.80;;;;;;4951250;28;45438;-54
2022/09/06 09:55:00;;;;;;;;;;;26.70;50.60;;;;;;4940388;28;45759;-55
2022/09/06 09:57:25;;;;;;;;;;;26.80;50.70;;;;;;4959389;28;45316;-55
2022/09/06 09:59:51;;;;;;;;;;;26.80;50.50;;;;;;4951254;28;45097;-58
2022/09/06 10:02:27;;;;;;;;;;;26.90;50.60;;;;;;4949787;28;45360;-56
2022/09/06 10:04:58;;;;;;;;;;;26.80;50.30;;;;;;4932857;28;46002;-55
2022/09/06 10:07:23;;;;;;;;;;;26.90;50.40;;;;;;4939723;28;45072;-57
2022/09/06 10:09:55;;;;;;;;;;;26.90;50.30;;;;;;4937908;28;45594;-54
2022/09/06 10:12:31;;;;;;;;;;;27.00;50.20;;;;;;4946874;28;45376;-58
2022/09/06 10:14:56;;;;;;;;;;;27.00;50.10;;;;;;4958156;28;46091;-53
2022/09/06 10:17:32;;;;;;;;;;;27.00;50.00;;;;;;4952641;28;45636;-55
2022/09/06 10:20:02;;;;;;;;;;;27.00;49.90;;;;;;4956867;28;45189;-59
2022/09/06 10:22:28;;;;;;;;;;;27.10;49.90;;;;;;4954097;28;45269;-55
2022/09/06 10:24:56;;;;;;;;;;;27.10;49.60;;;;;;4953653;28;46129;-59
2022/09/06 10:27:24;;;;;;;;;;;27.10;49.40;;;;;;4953341;28;45430;-54
2022/09/06 10:29:53;;;;;;;;;;;27.10;49.40;;;;;;4947941;28;45373;-57
2022/09/06 10:32:21;;;;;;;;;;;27.10;49.10;;;;;;4934811;28;45570;-55
2022/09/06 10:34:56;;;;;;;;;;;27.10;49.10;;;;;;4950052;28;45982;-58
2022/09/06 10:37:24;;;;;;;;;;;27.20;48.80;;;;;;4932922;28;45598;-59
2022/09/06 10:39:58;;;;;;;;;;;27.20;48.50;;;;;;4947946;28;44718;-58
2022/09/06 10:42:29;;;;;;;;;;;27.30;48.50;;;;;;4954276;28;44800;-57
2022/09/06 10:45:05;;;;;;;;;;;27.30;48.30;;;;;;4938883;28;45977;-59
2022/09/06 10:47:36;;;;;;;;;;;27.30;47.90;;;;;;4935196;28;45196;-59
2022/09/06 10:50:01;;;;;;;;;;;27.40;48.00;;;;;;4955748;28;45320;-59
2022/09/06 10:52:30;;;;;;;;;;;27.40;47.70;;;;;;4940716;28;45640;-59
2022/09/06 10:54:56;;;;;;;;;;;27.40;47.60;;;;;;4947384;28;46876;-60
2022/09/06 10:57:22;;;;;;;;;;;27.50;47.50;;;;;;4935051;28;44751;-54
2022/09/06 10:59:56;;;;;;;;;;;27.50;47.30;;;;;;4951165;28;45468;-59
2022/09/06 11:02:40;;;;;;;;;;;27.50;47.00;;;;;;4952307;28;45330;-57
2022/09/06 11:05:07;;;;;;;;;;;27.60;46.90;;;;;;4952445;28;46044;-57
2022/09/06 11:07:36;;;;;;;;;;;27.60;46.80;;;;;;4950583;28;45052;-59
2022/09/06 11:10:07;;;;;;;;;;;27.60;46.60;;;;;;4924309;28;45223;-57
2022/09/06 11:12:35;;;;;;;;;;;27.60;46.70;;;;;;4954199;28;45685;-55
2022/09/06 11:15:01;;;;;;;;;;;27.70;46.60;;;;;;4956698;28;46173;-58
2022/09/06 11:17:30;;;;;;;;;;;27.70;46.30;;;;;;4951865;28;46001;-55
2022/09/06 11:20:04;;;;;;;;;;;27.70;46.20;;;;;;4954472;28;45421;-56
2022/09/06 11:22:55;;;;;;;;;;;27.80;46.30;;;;;;4941322;28;44753;-59
2022/09/06 11:25:20;;;;;;;;;;;27.80;46.20;;;;;;4954943;28;45929;-57
2022/09/06 11:27:46;;;;;;;;;;;27.80;46.20;;;;;;4953955;28;45296;-62
2022/09/06 11:30:15;;;;;;;;;;;27.80;46.20;;;;;;4951370;28;45229;-62
2022/09/06 11:32:50;;;;;;;;;;;27.80;46.00;;;;;;4949347;28;46191;-59
2022/09/06 11:35:22;;;;;;;;;;;27.80;45.90;;;;;;4956070;28;45997;-60
2022/09/06 11:37:49;;;;;;;;;;;27.80;45.80;;;;;;4950870;28;44895;-56
2022/09/06 11:40:22;;;;;;;;;;;27.90;45.50;;;;;;4941185;28;45525;-58
2022/09/06 11:43:06;;;;;;;;;;;27.90;45.30;;;;;;4951634;28;45263;-55
2022/09/06 11:45:38;;;;;;;;;;;28.00;45.30;;;;;;4952402;28;47072;-57
2022/09/06 11:48:22;;;;;;;;;;;28.00;45.30;;;;;;4951617;28;45028;-58
2022/09/06 11:50:53;;;;;;;;;;;28.00;45.30;;;;;;4953433;28;45585;-58
2022/09/06 11:53:20;;;;;;;;;;;28.00;45.30;;;;;;4942990;28;45452;-59
2022/09/06 11:56:01;;;;;;;;;;;28.10;45.40;;;;;;4963166;28;46186;-58
2022/09/06 11:58:44;;;;;;;;;;;28.10;45.20;;;;;;4954990;28;45321;-55
2022/09/06 12:01:12;;;;;;;;;;;28.10;45.00;;;;;;4956058;28;45201;-61
2022/09/06 12:03:41;;;;;;;;;;;28.20;45.00;;;;;;4957712;28;45941;-57
2022/09/06 12:06:19;;;;;;;;;;;28.20;44.90;;;;;;4952484;28;46879;-59
2022/09/06 12:08:48;;;;;;;;;;;28.20;44.80;;;;;;4952121;28;46070;-58
2022/09/06 12:11:32;;;;;;;;;;;28.20;44.80;;;;;;4949759;28;45197;-58
2022/09/06 12:14:04;;;;;;;;;;;28.30;44.70;;;;;;4951272;28;45349;-58
2022/09/06 12:16:59;;;;;;;;;;;28.30;44.80;;;;;;4943132;28;46026;-60
2022/09/06 12:19:40;;;;;;;;;;;28.30;44.80;;;;;;4946295;28;45251;-57
2022/09/06 12:22:26;;;;;;;;;;;28.30;44.80;;;;;;4954457;28;45820;-59
2022/09/06 12:24:54;;;;;;;;;;;28.30;44.70;;;;;;4929914;28;45090;-54
2022/09/06 12:27:21;;;;;;;;;;;28.30;44.80;;;;;;4956163;28;46193;-54
2022/09/06 12:30:07;;;;;;;;;;;28.30;44.70;;;;;;4949107;28;45339;-53
2022/09/06 12:32:33;;;;;;;;;;;28.30;44.60;;;;;;4956966;28;45321;-59
2022/09/06 12:34:59;;;;;;;;;;;28.30;44.70;;;;;;4958604;28;44773;-58
2022/09/06 12:37:36;;;;;;;;;;;28.30;44.70;;;;;;4954174;28;46503;-55
2022/09/06 12:40:03;;;;;;;;;;;28.30;44.60;;;;;;4953625;28;45671;-57
2022/09/06 12:42:28;;;;;;;;;;;28.30;44.70;;;;;;4947286;28;45249;-53
2022/09/06 12:44:53;;;;;;;;;;;28.30;44.70;;;;;;4939818;28;44990;-59
2022/09/06 12:47:38;;;;;;;;;;;28.30;44.60;;;;;;4954019;28;45813;-55
2022/09/06 12:50:05;;;;;;;;;;;28.30;44.70;;;;;;4960319;28;45321;-58
2022/09/06 12:52:30;;;;;;;;;;;28.30;44.70;;;;;;4956410;28;45124;-52
2022/09/06 12:54:56;;;;;;;;;;;28.30;44.60;;;;;;4957468;28;45224;-56
2022/09/06 12:57:22;;;;;;;;;;;28.30;44.60;;;;;;4956041;28;46176;-55
2022/09/06 12:59:49;;;;;;;;;;;28.30;44.60;;;;;;4955567;28;45217;-55
2022/09/06 13:02:15;;;;;;;;;;;28.40;44.70;;;;;;4960220;28;45138;-53
2022/09/06 13:04:41;;;;;;;;;;;28.40;44.60;;;;;;4957510;28;45512;-57
2022/09/06 13:07:10;;;;;;;;;;;28.40;44.60;;;;;;4930217;28;46990;-54
2022/09/06 13:09:36;;;;;;;;;;;28.40;44.50;;;;;;4958929;28;45689;-51
2022/09/06 13:12:03;;;;;;;;;;;28.40;44.50;;;;;;4937908;28;45298;-56
2022/09/06 13:14:29;;;;;;;;;;;28.40;44.60;;;;;;4945934;28;44770;-55
2022/09/06 13:16:58;;;;;;;;;;;28.40;44.30;;;;;;4954898;28;46233;-57
2022/09/06 13:19:34;;;;;;;;;;;28.40;44.20;;;;;;4941208;28;45261;-55
2022/09/06 13:22:00;;;;;;;;;;;28.50;44.50;;;;;;4957932;28;45568;-56
2022/09/06 13:24:36;;;;;;;;;;;28.50;44.20;;;;;;4956006;28;45268;-56
2022/09/06 13:27:20;;;;;;;;;;;28.50;44.30;;;;;;4960553;28;45972;-57
2022/09/06 13:30:02;;;;;;;;;;;28.50;44.30;;;;;;4949553;28;45202;-55
2022/09/06 13:32:28;;;;;;;;;;;28.50;44.30;;;;;;4955465;28;45346;-55
2022/09/06 13:34:56;;;;;;;;;;;28.50;43.80;;;;;;4956493;28;44868;-53
2022/09/06 13:37:26;;;;;;;;;;;28.50;44.00;;;;;;4955077;28;46043;-57
2022/09/06 13:39:51;;;;;;;;;;;28.60;43.70;;;;;;4938512;28;45221;-53
2022/09/06 13:42:29;;;;;;;;;;;28.60;43.90;;;;;;4955130;28;45105;-62
2022/09/06 13:44:55;;;;;;;;;;;28.60;43.90;;;;;;4956039;28;45611;-55
2022/09/06 13:47:21;;;;;;;;;;;28.60;43.80;;;;;;4952842;28;46202;-59
2022/09/06 13:49:46;;;;;;;;;;;28.60;43.60;;;;;;4954184;28;45357;-54
2022/09/06 13:52:12;;;;;;;;;;;28.70;43.40;;;;;;4953941;28;45770;-59
2022/09/06 13:54:38;;;;;;;;;;;28.70;43.10;;;;;;4962697;28;45428;-59
2022/09/06 13:57:04;;;;;;;;;;;28.70;43.30;;;;;;4953194;28;45881;-58
2022/09/06 13:59:30;;;;;;;;;;;28.70;43.30;;;;;;4955103;28;45465;-56
2022/09/06 14:02:00;;;;;;;;;;;28.80;43.10;;;;;;4955192;28;45364;-59
2022/09/06 14:04:26;;;;;;;;;;;28.70;43.00;;;;;;4957421;28;45202;-57
2022/09/06 14:06:52;;;;;;;;;;;28.80;43.00;;;;;;4953677;28;46020;-53
2022/09/06 14:09:18;;;;;;;;;;;28.80;42.80;;;;;;4955153;28;45244;-61
2022/09/06 14:14:47;;;;;;;;;;;28.80;42.80;;;;;;4958403;28;45674;-61
2022/09/06 14:17:13;;;;;;;;;;;28.80;42.90;;;;;;4951457;28;48064;-56
2022/09/06 14:19:40;;;;;;;;;;;28.80;42.90;;;;;;4954834;28;45004;-54
2022/09/06 14:22:06;;;;;;;;;;;28.80;43.00;;;;;;4954796;28;45198;-57
2022/09/06 14:24:31;;;;;;;;;;;28.80;42.70;;;;;;4959003;28;45161;-59
2022/09/06 14:26:57;;;;;;;;;;;28.80;42.40;;;;;;4953503;28;46213;-58
2022/09/06 14:29:22;;;;;;;;;;;28.80;42.50;;;;;;4959244;28;45361;-61
2022/09/06 14:31:48;;;;;;;;;;;28.90;42.40;;;;;;4955600;28;44773;-59
2022/09/06 14:34:13;;;;;;;;;;;28.90;42.40;;;;;;4956758;28;45222;-60
2022/09/06 14:36:39;;;;;;;;;;;28.90;42.40;;;;;;4954198;28;45331;-57
2022/09/06 14:39:04;;;;;;;;;;;29.00;42.50;;;;;;4955747;28;45238;-56
2022/09/06 14:41:30;;;;;;;;;;;29.00;42.30;;;;;;4954767;28;45566;-59
2022/09/06 14:43:56;;;;;;;;;;;28.90;42.30;;;;;;4958271;28;45697;-61
2022/09/06 14:46:21;;;;;;;;;;;28.90;42.30;;;;;;4958097;28;45406;-60
2022/09/06 14:48:47;;;;;;;;;;;28.90;42.20;;;;;;4957933;28;45637;-56
2022/09/06 14:51:13;;;;;;;;;;;29.00;42.10;;;;;;4940488;28;44719;-58
2022/09/06 14:53:39;;;;;;;;;;;29.00;42.10;;;;;;4954999;28;45444;-55
2022/09/06 14:56:05;;;;;;;;;;;29.00;42.10;;;;;;4957762;28;45982;-56
2022/09/06 14:58:31;;;;;;;;;;;29.00;42.20;;;;;;4954663;28;45305;-60
2022/09/06 15:01:04;;;;;;;;;;;29.00;42.10;;;;;;4958305;28;45535;-57
2022/09/06 15:03:30;;;;;;;;;;;29.00;41.80;;;;;;4956925;28;45590;-56
2022/09/06 15:05:55;;;;;;;;;;;29.00;41.70;;;;;;4951023;28;47149;-53
2022/09/06 15:08:21;;;;;;;;;;;29.00;41.70;;;;;;4958050;28;45286;-60
2022/09/06 15:10:54;;;;;;;;;;;29.00;41.70;;;;;;4957568;28;45010;-54
2022/09/06 15:13:20;;;;;;;;;;;29.00;41.70;;;;;;4955371;28;45337;-56
2022/09/06 15:15:45;;;;;;;;;;;29.10;41.70;;;;;;4953634;28;45500;-57
2022/09/06 15:18:11;;;;;;;;;;;29.00;41.50;;;;;;4956300;28;44639;-58
2022/09/06 15:20:36;;;;;;;;;;;29.00;41.60;;;;;;4957042;28;45427;-58
2022/09/06 15:23:03;;;;;;;;;;;29.00;41.50;;;;;;4958006;28;45499;-53
2022/09/06 15:25:28;;;;;;;;;;;29.00;41.50;;;;;;4952072;28;45978;-55
2022/09/06 15:27:54;;;;;;;;;;;29.00;41.50;;;;;;4954331;28;45141;-59
2022/09/06 15:30:19;;;;;;;;;;;29.00;41.60;;;;;;4960556;28;45254;-56
2022/09/06 15:32:45;;;;;;;;;;;29.00;41.50;;;;;;4957449;28;45195;-55
2022/09/06 15:35:10;;;;;;;;;;;29.00;41.40;;;;;;4956351;28;46894;-60
2022/09/06 15:37:36;;;;;;;;;;;29.00;41.40;;;;;;4959040;28;45412;-55
2022/09/06 15:40:02;;;;;;;;;;;29.00;41.50;;;;;;4954503;28;44891;-55
2022/09/06 15:42:28;;;;;;;;;;;29.00;41.30;;;;;;4961037;28;44792;-54
2022/09/06 15:44:54;;;;;;;;;;;29.00;42.00;;;;;;4956974;28;46845;-55
2022/09/06 15:47:19;;;;;;;;;;;29.00;41.20;;;;;;4951917;28;45213;-57
2022/09/06 15:49:45;;;;;;;;;;;29.00;41.30;;;;;;4955872;28;45276;-59
2022/09/06 15:52:11;;;;;;;;;;;29.00;41.20;;;;;;4951124;28;45341;-56
2022/09/06 15:57:21;;;;;;;;;;;28.90;41.20;;;;;;4957122;28;46286;-57
2022/09/06 15:59:46;;;;;;;;;;;29.00;41.30;;;;;;4956133;28;45567;-53
2022/09/06 16:02:12;;;;;;;;;;;28.90;41.20;;;;;;4953947;28;44868;-60
2022/09/06 16:04:37;;;;;;;;;;;29.00;41.10;;;;;;4950033;28;46080;-57
2022/09/06 16:07:03;;;;;;;;;;;29.00;41.00;;;;;;4955525;28;45212;-63
2022/09/06 16:09:29;;;;;;;;;;;28.90;41.00;;;;;;4959256;28;45570;-55
2022/09/06 16:11:55;;;;;;;;;;;28.90;41.10;;;;;;4956917;28;45364;-56
2022/09/06 16:14:20;;;;;;;;;;;28.80;40.90;;;;;;4953931;28;46175;-56
2022/09/06 16:16:46;;;;;;;;;;;28.80;41.10;;;;;;4954283;28;45379;-56
2022/09/06 16:19:12;;;;;;;;;;;28.90;41.10;;;;;;4956976;28;44890;-58
2022/09/06 16:21:38;;;;;;;;;;;28.80;41.00;;;;;;4947328;28;45116;-60
2022/09/06 16:24:04;;;;;;;;;;;28.80;41.00;;;;;;4949474;28;45717;-60
2022/09/06 16:26:31;;;;;;;;;;;28.90;41.00;;;;;;4941278;28;44970;-57
2022/09/06 16:28:56;;;;;;;;;;;28.80;41.00;;;;;;4942903;28;45900;-59
2022/09/06 16:31:22;;;;;;;;;;;28.80;41.10;;;;;;4933762;28;45493;-59
2022/09/06 16:33:47;;;;;;;;;;;28.80;40.80;;;;;;4952667;28;45981;-59
2022/09/06 16:36:15;;;;;;;;;;;28.80;40.70;;;;;;4951766;28;45209;-59
2022/09/06 16:38:41;;;;;;;;;;;28.80;40.90;;;;;;4955801;28;44917;-60
2022/09/06 16:41:10;;;;;;;;;;;28.80;41.00;;;;;;4952568;28;45435;-57
2022/09/06 16:43:35;;;;;;;;;;;28.80;41.00;;;;;;4954270;28;45513;-59
2022/09/06 16:46:01;;;;;;;;;;;28.80;41.00;;;;;;4937318;28;46288;-59
2022/09/06 16:48:27;;;;;;;;;;;28.80;40.90;;;;;;4936701;28;45234;-58
2022/09/06 16:50:53;;;;;;;;;;;28.70;41.00;;;;;;4953996;28;44683;-57